Terminal Aerodrome Forecast
Issued by NWS Wilmington, OH

Current Version | Previous Version | Text Only | Print | Product List | Glossary Off
Versions: 1 2 3 4 5 6 7 8 9 10 11 12 13 14 15 16 17 18 19

076
FTUS41 KILN 202336
TAFDAY
TAF
KDAY 202336Z 2100/2124 19010KT P6SM BKN250
     FM210600 20011KT P6SM SCT250 WS020/22040KT
     FM211100 21013G20KT P6SM SCT250 WS020/23045KT
     FM211400 21016G25KT P6SM BKN200
     FM212200 23010KT P6SM BKN150=

USA.gov is the U.S. government's official web portal to all federal, state and local government web resources and services.